Time;durP1;ratioP1;P1;durP2;ratioP2;P2;SDS_P1;SDS_P2;PMS_P1;PMS_P2;Temp;Humidity;BMP_temperature;BMP_pressure;BME280_temperature;BME280_humidity;BME280_pressure;Samples;Min_cycle;Max_cycle;Signal;HPM_P1;HPM_P2
2024/01/26 00:01:36;;;;;;;18.27;4.60;;;3.80;99.90;;;;;;4992661;28;20181;-59
2024/01/26 00:04:01;;;;;;;25.43;5.93;;;3.90;99.90;;;;;;4990137;28;20443;-60
2024/01/26 00:06:27;;;;;;;11.50;4.90;;;3.90;99.90;;;;;;4988225;28;20573;-60
2024/01/26 00:08:53;;;;;;;19.30;6.33;;;4.00;99.90;;;;;;4986914;28;20181;-60
2024/01/26 00:11:19;;;;;;;21.33;6.13;;;4.00;99.90;;;;;;5000796;28;20235;-60
2024/01/26 00:13:47;;;;;;;10.80;4.57;;;4.00;99.90;;;;;;5001543;28;20734;-63
2024/01/26 00:16:13;;;;;;;14.77;6.40;;;3.90;99.90;;;;;;5007835;28;20510;-60
2024/01/26 00:18:40;;;;;;;23.83;6.60;;;3.80;99.90;;;;;;4992166;28;20427;-60
2024/01/26 00:21:06;;;;;;;13.53;4.83;;;3.90;99.90;;;;;;5006059;28;20515;-58
2024/01/26 00:23:32;;;;;;;14.70;5.73;;;3.90;99.90;;;;;;4991148;28;20427;-61
2024/01/26 00:25:58;;;;;;;18.93;5.20;;;3.90;99.90;;;;;;4984144;28;20448;-60
2024/01/26 00:28:23;;;;;;;25.03;5.70;;;3.90;99.90;;;;;;5001860;28;20204;-60
2024/01/26 00:30:49;;;;;;;15.73;5.43;;;3.90;99.90;;;;;;5004540;28;20632;-60
2024/01/26 00:33:15;;;;;;;14.33;5.37;;;3.90;99.90;;;;;;5000756;28;20214;-60
2024/01/26 00:35:40;;;;;;;17.43;5.70;;;4.00;99.90;;;;;;5002222;28;20255;-58
2024/01/26 00:38:06;;;;;;;15.60;6.10;;;3.90;99.90;;;;;;5017378;28;20204;-61
2024/01/26 00:40:32;;;;;;;18.90;4.93;;;3.80;99.90;;;;;;5003854;28;20224;-60
2024/01/26 00:46:20;;;;;;;8.40;4.20;;;3.70;99.90;;;;;;4983611;28;20195;-61
2024/01/26 00:48:46;;;;;;;16.10;5.70;;;3.70;99.90;;;;;;4982148;28;20583;-60
2024/01/26 00:51:11;;;;;;;9.00;4.53;;;3.60;99.90;;;;;;4991648;28;20542;-60
2024/01/26 00:53:37;;;;;;;17.87;7.13;;;3.50;99.90;;;;;;4987522;28;20251;-60
2024/01/26 00:56:03;;;;;;;12.53;4.30;;;3.60;99.90;;;;;;4983940;28;20267;-59
2024/01/26 00:58:28;;;;;;;17.50;5.30;;;3.50;99.90;;;;;;4985556;28;20192;-59
2024/01/26 01:00:54;;;;;;;13.30;4.00;;;3.60;99.90;;;;;;4994769;28;20568;-60
2024/01/26 01:03:20;;;;;;;9.53;4.83;;;3.50;99.90;;;;;;4991542;28;20717;-60
2024/01/26 01:05:45;;;;;;;22.00;6.60;;;3.40;99.90;;;;;;4990944;28;20193;-60
2024/01/26 01:08:11;;;;;;;24.03;5.63;;;3.40;99.90;;;;;;4991643;28;20181;-60
2024/01/26 01:10:36;;;;;;;25.20;6.27;;;3.40;99.90;;;;;;4991469;28;20255;-60
2024/01/26 01:13:04;;;;;;;20.83;5.40;;;3.40;99.90;;;;;;4991592;28;20205;-59
2024/01/26 01:15:31;;;;;;;20.50;5.97;;;3.30;99.90;;;;;;4991845;28;20647;-59
2024/01/26 01:17:57;;;;;;;26.47;7.70;;;3.30;99.90;;;;;;4990966;28;20796;-60
2024/01/26 01:20:23;;;;;;;17.50;5.37;;;3.30;99.90;;;;;;4991444;28;20471;-60
2024/01/26 01:22:48;;;;;;;10.27;5.27;;;3.20;99.90;;;;;;4991025;28;20474;-60
2024/01/26 01:25:14;;;;;;;16.70;5.40;;;3.20;99.90;;;;;;4991204;28;20268;-60
2024/01/26 01:27:40;;;;;;;15.93;4.77;;;3.20;99.90;;;;;;4991527;28;20667;-60
2024/01/26 01:30:07;;;;;;;19.40;5.63;;;3.20;99.90;;;;;;4991477;28;20918;-60
2024/01/26 01:32:34;;;;;;;10.43;4.80;;;3.10;99.90;;;;;;4991565;28;20447;-60
2024/01/26 01:35:00;;;;;;;11.40;4.60;;;3.10;99.90;;;;;;4996942;28;20439;-60
2024/01/26 01:37:26;;;;;;;14.10;5.30;;;3.20;99.90;;;;;;4998147;28;20447;-61
2024/01/26 01:39:51;;;;;;;18.67;5.43;;;3.20;99.90;;;;;;4991958;28;20431;-60
2024/01/26 01:42:17;;;;;;;14.03;7.30;;;3.10;99.90;;;;;;4991241;28;20580;-59
2024/01/26 01:44:43;;;;;;;15.37;5.47;;;3.10;99.90;;;;;;4990945;28;20270;-60
2024/01/26 01:47:13;;;;;;;13.07;5.93;;;3.20;99.90;;;;;;4991152;28;20187;-61
2024/01/26 01:49:39;;;;;;;13.00;5.57;;;3.10;99.90;;;;;;4987533;28;20502;-60
2024/01/26 01:52:10;;;;;;;16.30;5.07;;;3.00;99.90;;;;;;4993534;28;20438;-60
2024/01/26 01:54:37;;;;;;;14.80;6.43;;;3.00;99.90;;;;;;4988967;28;20466;-60
2024/01/26 01:57:03;;;;;;;19.47;6.17;;;3.10;99.90;;;;;;4988733;28;20439;-60
2024/01/26 01:59:30;;;;;;;14.37;5.47;;;3.10;99.90;;;;;;4991209;28;20463;-60
2024/01/26 02:01:56;;;;;;;17.77;6.20;;;3.00;99.90;;;;;;4990026;28;20412;-60
2024/01/26 02:04:21;;;;;;;23.43;6.03;;;3.00;99.90;;;;;;4991148;28;20428;-60
2024/01/26 02:06:58;;;;;;;22.53;7.80;;;3.00;99.90;;;;;;4991163;28;20185;-61
2024/01/26 02:09:24;;;;;;;12.07;5.50;;;3.10;99.90;;;;;;4992541;28;20626;-60
2024/01/26 02:11:50;;;;;;;15.00;6.23;;;3.10;99.90;;;;;;4994122;28;20419;-60
2024/01/26 02:14:16;;;;;;;12.70;6.73;;;3.10;99.90;;;;;;4994464;28;20827;-60
2024/01/26 02:16:58;;;;;;;17.60;6.83;;;3.00;99.90;;;;;;4986572;28;20444;-60
2024/01/26 02:19:25;;;;;;;18.40;6.77;;;2.90;99.90;;;;;;4988642;28;20207;-60
2024/01/26 02:21:51;;;;;;;25.33;7.90;;;2.90;99.90;;;;;;4993745;28;20416;-60
2024/01/26 02:24:16;;;;;;;21.70;7.13;;;2.90;99.90;;;;;;4994619;28;20941;-60
2024/01/26 02:26:42;;;;;;;14.47;5.63;;;2.90;99.90;;;;;;4993974;28;20188;-60
2024/01/26 02:29:08;;;;;;;28.17;8.13;;;2.90;99.90;;;;;;4994517;28;20210;-60
2024/01/26 02:31:33;;;;;;;13.00;6.43;;;2.90;99.90;;;;;;4990019;28;20243;-60
2024/01/26 02:33:59;;;;;;;12.50;5.47;;;2.90;99.90;;;;;;4993191;28;20196;-60
2024/01/26 02:36:28;;;;;;;13.93;6.70;;;2.90;99.90;;;;;;4994099;28;20624;-60
2024/01/26 02:38:55;;;;;;;14.87;6.03;;;2.90;99.90;;;;;;4993717;28;20185;-60
2024/01/26 02:41:20;;;;;;;18.00;7.27;;;2.90;99.90;;;;;;4993718;28;20409;-60
2024/01/26 02:43:46;;;;;;;17.10;6.80;;;2.90;99.90;;;;;;4984339;28;20432;-60
2024/01/26 02:46:12;;;;;;;15.63;6.23;;;2.90;99.90;;;;;;4993905;28;20262;-62
2024/01/26 02:48:38;;;;;;;15.60;6.60;;;2.90;99.90;;;;;;5006246;28;20657;-61
2024/01/26 02:51:04;;;;;;;13.33;5.80;;;2.90;99.90;;;;;;4990896;28;20216;-60
2024/01/26 02:53:30;;;;;;;13.10;6.90;;;3.00;99.90;;;;;;4993624;28;20463;-60
2024/01/26 02:55:56;;;;;;;21.23;6.17;;;3.00;99.90;;;;;;4993169;28;20439;-60
2024/01/26 02:58:23;;;;;;;10.20;6.80;;;3.00;99.90;;;;;;4993831;28;20173;-60
2024/01/26 03:00:49;;;;;;;20.37;6.60;;;2.90;99.90;;;;;;4993192;28;20542;-60
2024/01/26 03:03:15;;;;;;;15.77;6.50;;;2.90;99.90;;;;;;4993557;28;20457;-60
2024/01/26 03:05:41;;;;;;;16.90;6.87;;;2.90;99.90;;;;;;4993317;28;20440;-60
2024/01/26 03:08:07;;;;;;;21.07;6.43;;;2.90;99.90;;;;;;4993341;28;20659;-59
2024/01/26 03:10:33;;;;;;;11.60;6.63;;;2.80;99.90;;;;;;4989486;28;20263;-60
2024/01/26 03:12:58;;;;;;;12.70;5.60;;;2.80;99.90;;;;;;4991854;28;21010;-60
2024/01/26 03:15:24;;;;;;;17.03;6.73;;;2.80;99.90;;;;;;4993279;28;20432;-60
2024/01/26 03:17:50;;;;;;;20.50;7.27;;;2.70;99.90;;;;;;4992796;28;20181;-60
2024/01/26 03:20:17;;;;;;;16.80;7.17;;;2.80;99.90;;;;;;4992944;28;20672;-61
2024/01/26 03:22:45;;;;;;;23.30;6.93;;;2.70;99.90;;;;;;4993141;28;20446;-61
2024/01/26 03:25:10;;;;;;;19.73;7.40;;;2.70;99.90;;;;;;4993674;28;20435;-60
2024/01/26 03:27:36;;;;;;;12.60;6.13;;;2.70;99.90;;;;;;4993689;28;20926;-60
2024/01/26 03:30:03;;;;;;;12.83;7.00;;;2.70;99.90;;;;;;4995853;28;20279;-60
2024/01/26 03:32:29;;;;;;;21.73;7.80;;;2.70;99.90;;;;;;4998061;28;20180;-60
2024/01/26 03:34:55;;;;;;;12.00;7.33;;;2.70;99.90;;;;;;4992673;28;20522;-60
2024/01/26 03:37:20;;;;;;;25.20;7.47;;;2.80;99.90;;;;;;4992944;28;20177;-59
2024/01/26 03:39:46;;;;;;;10.47;6.37;;;2.90;99.90;;;;;;4992185;28;20694;-58
2024/01/26 03:42:11;;;;;;;22.43;7.00;;;2.90;99.90;;;;;;4992681;28;20181;-59
2024/01/26 03:44:38;;;;;;;18.00;7.23;;;2.90;99.90;;;;;;4992871;28;20177;-60
2024/01/26 03:47:04;;;;;;;21.33;8.50;;;3.00;99.90;;;;;;4992455;28;20522;-58
2024/01/26 03:49:30;;;;;;;18.53;8.10;;;3.10;99.90;;;;;;4992869;28;20852;-59
2024/01/26 03:51:55;;;;;;;34.70;9.53;;;3.10;99.90;;;;;;4992184;28;20478;-59
2024/01/26 03:54:21;;;;;;;13.33;8.83;;;3.10;99.90;;;;;;4992885;28;20566;-58
2024/01/26 03:56:46;;;;;;;21.83;9.87;;;3.20;99.90;;;;;;4992093;28;20274;-62
2024/01/26 03:59:12;;;;;;;19.90;8.00;;;3.30;99.90;;;;;;4992495;28;20352;-61
2024/01/26 04:01:38;;;;;;;24.97;8.87;;;3.30;99.90;;;;;;4992632;28;20200;-60
2024/01/26 04:04:03;;;;;;;13.83;5.77;;;3.40;99.90;;;;;;4991974;28;20192;-61
2024/01/26 04:06:29;;;;;;;14.63;8.20;;;3.40;99.90;;;;;;4992333;28;20177;-60
2024/01/26 04:08:56;;;;;;;15.30;7.70;;;3.40;99.90;;;;;;4992527;28;20181;-60
2024/01/26 04:11:22;;;;;;;14.63;7.03;;;3.50;99.90;;;;;;4991993;28;20656;-60
2024/01/26 04:13:47;;;;;;;13.90;6.03;;;3.50;99.90;;;;;;4991709;28;20522;-59
2024/01/26 04:16:13;;;;;;;11.83;5.93;;;3.50;99.90;;;;;;4992303;28;20283;-60
2024/01/26 04:18:40;;;;;;;17.50;5.87;;;3.50;99.90;;;;;;4992187;28;20192;-60
2024/01/26 04:21:06;;;;;;;13.97;6.77;;;3.60;99.90;;;;;;4991893;28;20652;-60
2024/01/26 04:23:31;;;;;;;32.87;8.33;;;3.60;99.90;;;;;;4992089;28;20823;-60
2024/01/26 04:25:57;;;;;;;14.73;6.90;;;3.60;99.90;;;;;;4991784;28;20440;-60
2024/01/26 04:28:23;;;;;;;15.13;6.30;;;3.60;99.90;;;;;;4992041;28;20671;-60
2024/01/26 04:30:49;;;;;;;11.73;5.90;;;3.60;99.90;;;;;;4991302;28;20193;-60
2024/01/26 04:33:15;;;;;;;18.23;9.07;;;3.70;99.90;;;;;;4991488;28;20215;-62
2024/01/26 04:35:40;;;;;;;17.90;6.90;;;3.70;99.90;;;;;;4991861;28;20831;-60
2024/01/26 04:38:07;;;;;;;16.03;6.63;;;3.70;99.90;;;;;;4991146;28;20420;-60
2024/01/26 04:40:33;;;;;;;23.73;8.23;;;3.70;99.90;;;;;;4991965;28;20283;-60
2024/01/26 04:42:58;;;;;;;21.27;7.33;;;3.70;99.90;;;;;;4991678;28;20554;-60
2024/01/26 04:45:24;;;;;;;20.63;6.93;;;3.70;99.90;;;;;;4991868;28;20188;-60
2024/01/26 04:47:49;;;;;;;14.27;6.30;;;3.60;99.90;;;;;;4991703;28;20658;-62
2024/01/26 04:50:15;;;;;;;22.43;8.97;;;3.70;99.90;;;;;;4991552;28;20287;-60
2024/01/26 04:52:40;;;;;;;13.33;5.60;;;3.70;99.90;;;;;;4991398;28;20377;-60
2024/01/26 04:55:07;;;;;;;21.23;7.93;;;3.60;99.90;;;;;;4991215;28;20196;-60
2024/01/26 04:57:33;;;;;;;19.73;7.30;;;3.60;99.90;;;;;;4991578;28;20184;-60
2024/01/26 04:59:59;;;;;;;21.40;7.00;;;3.60;99.90;;;;;;4991479;28;20447;-60
2024/01/26 05:02:24;;;;;;;17.13;7.50;;;3.60;99.90;;;;;;4985162;28;20176;-61
2024/01/26 05:04:50;;;;;;;18.90;7.07;;;3.60;99.90;;;;;;4991426;28;20192;-60
2024/01/26 05:07:15;;;;;;;16.73;7.00;;;3.60;99.90;;;;;;4991486;28;20173;-59
2024/01/26 05:09:41;;;;;;;13.87;7.90;;;3.60;99.90;;;;;;4991437;28;20564;-60
2024/01/26 05:12:07;;;;;;;21.63;6.90;;;3.50;99.90;;;;;;4991069;28;20227;-61
2024/01/26 05:14:35;;;;;;;11.90;6.90;;;3.50;99.90;;;;;;4991619;28;20209;-62
2024/01/26 05:17:01;;;;;;;15.63;6.00;;;3.60;99.90;;;;;;4990434;28;20428;-60
2024/01/26 05:19:27;;;;;;;12.27;6.20;;;3.60;99.90;;;;;;4991491;28;20444;-60
2024/01/26 05:21:53;;;;;;;15.17;7.30;;;3.60;99.90;;;;;;4991195;28;20434;-59
2024/01/26 05:24:18;;;;;;;16.33;6.83;;;3.60;99.90;;;;;;4991873;28;20690;-60
2024/01/26 05:26:44;;;;;;;18.50;7.20;;;3.70;99.90;;;;;;4991451;28;20181;-60
2024/01/26 05:29:10;;;;;;;15.70;6.87;;;3.70;99.90;;;;;;4991330;28;20232;-60
2024/01/26 05:31:39;;;;;;;20.03;8.50;;;3.70;99.90;;;;;;4991370;28;20600;-60
2024/01/26 05:34:05;;;;;;;18.13;7.50;;;3.70;99.90;;;;;;4991881;28;20463;-60
2024/01/26 05:36:30;;;;;;;15.13;6.33;;;3.80;99.90;;;;;;4991379;28;20463;-60
2024/01/26 05:38:56;;;;;;;13.10;7.23;;;3.80;99.90;;;;;;4991114;28;20173;-60
2024/01/26 05:41:22;;;;;;;16.27;7.73;;;3.80;99.90;;;;;;4991375;28;20177;-61
2024/01/26 05:43:48;;;;;;;14.27;5.77;;;3.80;99.90;;;;;;4993830;28;20184;-62
2024/01/26 05:46:14;;;;;;;12.80;6.43;;;3.80;99.90;;;;;;4994993;28;20196;-60
2024/01/26 05:48:43;;;;;;;19.50;6.67;;;3.80;99.90;;;;;;4994942;28;20420;-60
2024/01/26 05:51:08;;;;;;;17.77;5.87;;;3.80;99.90;;;;;;4994529;28;20310;-61
2024/01/26 05:53:34;;;;;;;16.40;8.10;;;3.80;99.90;;;;;;4994801;28;20939;-61
2024/01/26 05:56:00;;;;;;;8.80;6.73;;;3.80;99.90;;;;;;4995531;28;20260;-61
2024/01/26 05:58:26;;;;;;;15.57;6.53;;;3.80;99.90;;;;;;4995747;28;20790;-61
2024/01/26 06:00:51;;;;;;;11.00;5.93;;;3.90;99.90;;;;;;4994050;28;20439;-61
2024/01/26 06:03:18;;;;;;;10.47;6.07;;;3.90;99.90;;;;;;4994656;28;20220;-60
2024/01/26 06:05:43;;;;;;;9.83;6.17;;;3.90;99.90;;;;;;4994506;28;20220;-60
2024/01/26 06:08:09;;;;;;;12.00;7.07;;;3.90;99.90;;;;;;4994331;28;20914;-60
2024/01/26 06:10:35;;;;;;;17.93;7.30;;;4.00;99.90;;;;;;4994519;28;20573;-60
2024/01/26 06:13:01;;;;;;;11.73;6.63;;;4.00;99.90;;;;;;4994096;28;20192;-60
2024/01/26 06:15:26;;;;;;;13.93;5.60;;;4.00;99.90;;;;;;4994336;28;20169;-60
2024/01/26 06:17:52;;;;;;;11.83;5.20;;;4.00;99.90;;;;;;4994162;28;20193;-61
2024/01/26 06:20:17;;;;;;;11.60;7.63;;;4.00;99.90;;;;;;4994239;28;20201;-60
2024/01/26 06:22:43;;;;;;;16.17;6.20;;;4.00;99.90;;;;;;4994524;28;20191;-60
2024/01/26 06:25:09;;;;;;;16.00;6.60;;;3.90;99.90;;;;;;4994183;28;20603;-60
2024/01/26 06:27:34;;;;;;;12.73;5.90;;;3.90;99.90;;;;;;4994349;28;20181;-60
2024/01/26 06:30:00;;;;;;;13.73;7.20;;;3.80;99.90;;;;;;4993896;28;20263;-60
2024/01/26 06:32:25;;;;;;;13.50;5.40;;;3.80;99.90;;;;;;4994038;28;20679;-60
2024/01/26 06:34:51;;;;;;;18.60;7.40;;;3.70;99.90;;;;;;4994019;28;20216;-60
2024/01/26 06:37:17;;;;;;;15.17;5.73;;;3.70;99.90;;;;;;4993757;28;20181;-61
2024/01/26 06:39:42;;;;;;;17.43;6.10;;;3.60;99.90;;;;;;4993926;28;20753;-60
2024/01/26 06:42:08;;;;;;;15.03;6.17;;;3.60;99.90;;;;;;4993584;28;20600;-60
2024/01/26 06:44:34;;;;;;;14.20;5.40;;;3.50;99.90;;;;;;4993632;28;20260;-61
2024/01/26 06:47:00;;;;;;;15.30;6.50;;;3.50;99.90;;;;;;4993526;28;20196;-61
2024/01/26 06:49:26;;;;;;;13.43;6.40;;;3.50;99.90;;;;;;4993529;28;20812;-61
2024/01/26 06:51:52;;;;;;;24.40;9.73;;;3.40;99.90;;;;;;4994612;28;20432;-61
2024/01/26 06:54:17;;;;;;;19.00;7.73;;;3.40;99.90;;;;;;4992937;28;20462;-60
2024/01/26 06:56:43;;;;;;;15.50;6.97;;;3.40;99.90;;;;;;4994297;28;20192;-61
2024/01/26 06:59:09;;;;;;;14.23;6.03;;;3.30;99.90;;;;;;4993175;28;20251;-60
2024/01/26 07:01:34;;;;;;;26.30;7.93;;;3.30;99.90;;;;;;4993158;28;20259;-61
2024/01/26 07:04:00;;;;;;;17.93;7.20;;;3.30;99.90;;;;;;4993225;28;20192;-60
2024/01/26 07:06:25;;;;;;;11.33;6.50;;;3.20;99.90;;;;;;4993454;28;20189;-60
2024/01/26 07:08:51;;;;;;;17.03;6.60;;;3.20;99.90;;;;;;4993718;28;20189;-60
2024/01/26 07:11:19;;;;;;;21.07;6.00;;;3.20;99.90;;;;;;4993446;28;20208;-60
2024/01/26 07:13:44;;;;;;;19.13;8.20;;;3.30;99.90;;;;;;4993483;28;20303;-60
2024/01/26 07:16:10;;;;;;;13.10;7.30;;;3.30;99.90;;;;;;4993233;28;20503;-60
2024/01/26 07:18:36;;;;;;;24.10;8.57;;;3.30;99.90;;;;;;4993336;28;20185;-61
2024/01/26 07:21:06;;;;;;;11.83;6.07;;;3.30;99.90;;;;;;4993791;28;20209;-60
2024/01/26 07:23:32;;;;;;;9.93;6.70;;;3.30;99.90;;;;;;4993410;28;20201;-62
2024/01/26 07:25:58;;;;;;;15.07;7.00;;;3.30;99.90;;;;;;4992892;28;20986;-60
2024/01/26 07:28:24;;;;;;;13.13;6.70;;;3.30;99.90;;;;;;4993161;28;20431;-60
2024/01/26 07:30:49;;;;;;;14.93;6.87;;;3.40;99.90;;;;;;4992981;28;20212;-61
2024/01/26 07:33:15;;;;;;;19.50;8.00;;;3.40;99.90;;;;;;4992932;28;20213;-60
2024/01/26 07:35:41;;;;;;;19.33;6.77;;;3.40;99.90;;;;;;4992902;28;20181;-60
2024/01/26 07:38:06;;;;;;;17.80;6.80;;;3.50;99.90;;;;;;5007186;28;20185;-60
2024/01/26 07:40:32;;;;;;;10.93;7.03;;;3.60;99.90;;;;;;4992625;28;20200;-61
2024/01/26 07:42:57;;;;;;;13.73;7.47;;;3.60;99.90;;;;;;4992860;28;20185;-60
2024/01/26 07:45:23;;;;;;;14.00;6.93;;;3.70;99.90;;;;;;4994083;28;20187;-61
2024/01/26 07:47:49;;;;;;;13.40;7.17;;;3.70;99.90;;;;;;4992953;28;21266;-59
2024/01/26 07:50:14;;;;;;;15.20;7.60;;;3.70;99.90;;;;;;4992143;28;20381;-60
2024/01/26 07:52:40;;;;;;;26.90;6.90;;;3.80;99.90;;;;;;4992423;28;20180;-61
2024/01/26 07:55:08;;;;;;;19.33;8.00;;;3.90;99.90;;;;;;4992436;28;20957;-64
2024/01/26 07:57:34;;;;;;;16.53;7.57;;;3.90;99.90;;;;;;4988040;28;20267;-59
2024/01/26 08:00:00;;;;;;;14.43;6.33;;;4.00;99.90;;;;;;4992458;28;20906;-60
2024/01/26 08:02:26;;;;;;;14.87;6.70;;;4.10;99.90;;;;;;4992300;28;20424;-63
2024/01/26 08:04:53;;;;;;;20.93;7.57;;;4.20;99.90;;;;;;4989420;28;20222;-61
2024/01/26 08:07:19;;;;;;;11.57;6.90;;;4.40;99.90;;;;;;4986969;28;20699;-61
2024/01/26 08:09:44;;;;;;;16.60;6.53;;;4.40;99.90;;;;;;4992140;28;20590;-61
2024/01/26 08:12:10;;;;;;;15.73;6.30;;;4.50;99.90;;;;;;4988608;28;20192;-62
2024/01/26 08:14:36;;;;;;;10.23;6.83;;;4.50;99.90;;;;;;4983641;28;20283;-60
2024/01/26 08:17:01;;;;;;;16.23;7.50;;;4.60;99.90;;;;;;4988888;28;20731;-61
2024/01/26 08:19:27;;;;;;;17.40;7.50;;;4.60;99.90;;;;;;4991963;28;20219;-60
2024/01/26 08:21:52;;;;;;;16.30;7.07;;;4.70;99.90;;;;;;4992995;28;20271;-60
2024/01/26 08:24:18;;;;;;;9.43;6.17;;;4.80;99.90;;;;;;4991898;28;20279;-60
2024/01/26 08:26:44;;;;;;;18.27;6.73;;;4.80;99.90;;;;;;4991945;28;20185;-60
2024/01/26 08:29:10;;;;;;;16.23;6.70;;;4.90;99.90;;;;;;4991322;28;20629;-60
2024/01/26 08:31:35;;;;;;;14.97;6.80;;;4.90;99.90;;;;;;4992032;28;20424;-60
2024/01/26 08:34:01;;;;;;;20.70;8.00;;;4.90;99.90;;;;;;4991594;28;20209;-60
2024/01/26 08:36:28;;;;;;;11.97;6.13;;;5.00;99.90;;;;;;4991943;28;20196;-61
2024/01/26 08:38:56;;;;;;;19.90;6.97;;;5.10;99.90;;;;;;4992175;28;20412;-59
2024/01/26 08:41:22;;;;;;;21.50;7.67;;;5.20;99.90;;;;;;4991656;28;20424;-59
2024/01/26 08:43:47;;;;;;;16.63;6.80;;;5.20;99.90;;;;;;4991859;28;20418;-60
2024/01/26 08:46:13;;;;;;;10.27;5.50;;;5.20;99.90;;;;;;4991893;28;20637;-60
2024/01/26 08:48:39;;;;;;;15.33;6.83;;;5.20;99.90;;;;;;4991349;28;20523;-64
2024/01/26 08:51:05;;;;;;;13.90;6.47;;;5.20;99.90;;;;;;4989589;28;20455;-61
2024/01/26 08:53:30;;;;;;;18.97;5.70;;;5.20;99.90;;;;;;4991635;28;20452;-60
2024/01/26 08:55:56;;;;;;;10.33;5.97;;;5.20;99.90;;;;;;4991505;28;20383;-61
2024/01/26 08:58:21;;;;;;;12.80;6.27;;;5.20;99.90;;;;;;4991187;28;20546;-61
2024/01/26 09:00:48;;;;;;;12.87;6.57;;;5.20;99.90;;;;;;4991320;28;20236;-60
2024/01/26 09:03:14;;;;;;;10.43;6.53;;;5.30;99.90;;;;;;4990914;28;20180;-61
2024/01/26 09:05:39;;;;;;;14.90;6.53;;;5.30;99.90;;;;;;4992444;28;20436;-60
2024/01/26 09:08:05;;;;;;;20.33;8.17;;;5.40;99.90;;;;;;4989994;28;20970;-60
2024/01/26 09:10:31;;;;;;;15.30;7.10;;;5.30;99.90;;;;;;4989396;28;20215;-61
2024/01/26 09:12:57;;;;;;;22.07;8.10;;;5.40;99.90;;;;;;4991330;28;20185;-61
2024/01/26 09:15:22;;;;;;;20.00;7.00;;;5.50;99.90;;;;;;4990483;28;20424;-61
2024/01/26 09:17:48;;;;;;;10.37;5.83;;;5.50;99.90;;;;;;4992191;28;20188;-59
2024/01/26 09:20:14;;;;;;;17.10;6.93;;;5.50;99.90;;;;;;4995034;28;20645;-64
2024/01/26 09:22:39;;;;;;;14.93;6.17;;;5.60;99.90;;;;;;4995354;28;20194;-60
2024/01/26 09:25:05;;;;;;;10.03;5.90;;;5.70;99.90;;;;;;4995060;28;20512;-60
2024/01/26 09:27:31;;;;;;;22.93;7.00;;;5.80;99.90;;;;;;4995342;28;20554;-60
2024/01/26 09:29:57;;;;;;;14.40;5.77;;;5.80;99.90;;;;;;4995045;28;20449;-61
2024/01/26 09:32:22;;;;;;;20.63;6.93;;;5.90;99.90;;;;;;4994969;28;20284;-61
2024/01/26 09:34:48;;;;;;;9.73;5.67;;;6.00;99.90;;;;;;4995106;28;20648;-61
2024/01/26 09:37:14;;;;;;;12.07;7.40;;;6.20;99.90;;;;;;4994804;28;20302;-61
2024/01/26 09:39:39;;;;;;;16.93;7.30;;;6.30;99.90;;;;;;4995488;28;20209;-62
2024/01/26 09:42:05;;;;;;;15.60;6.73;;;6.40;99.90;;;;;;4995666;28;20657;-61
2024/01/26 09:44:31;;;;;;;18.00;6.27;;;6.60;99.90;;;;;;4996045;28;20635;-61
2024/01/26 09:46:57;;;;;;;10.13;6.00;;;6.60;99.90;;;;;;4994520;28;20455;-61
2024/01/26 09:49:27;;;;;;;16.90;6.80;;;6.70;99.90;;;;;;4994715;28;20259;-61
2024/01/26 09:51:53;;;;;;;16.70;6.63;;;6.80;99.90;;;;;;4994547;28;20478;-60
2024/01/26 09:54:20;;;;;;;17.53;7.80;;;6.90;99.90;;;;;;4994551;28;20494;-60
2024/01/26 09:56:47;;;;;;;13.57;6.63;;;7.00;99.90;;;;;;4994558;28;20553;-61
2024/01/26 09:59:13;;;;;;;18.00;6.40;;;6.80;99.90;;;;;;4994413;28;20433;-60
2024/01/26 10:01:41;;;;;;;14.80;7.47;;;6.90;99.90;;;;;;4994438;28;20430;-60
2024/01/26 10:04:08;;;;;;;14.30;7.03;;;6.90;99.90;;;;;;4994409;28;20186;-60
2024/01/26 10:06:33;;;;;;;20.07;6.63;;;7.00;99.90;;;;;;5009676;28;20465;-60
2024/01/26 10:08:59;;;;;;;15.13;6.40;;;7.10;99.90;;;;;;4994478;28;20467;-61
2024/01/26 10:11:25;;;;;;;12.00;5.80;;;7.00;99.90;;;;;;4992533;28;20199;-61
2024/01/26 10:13:51;;;;;;;17.53;7.03;;;7.00;99.90;;;;;;4994352;28;20230;-60
2024/01/26 10:16:17;;;;;;;10.80;5.70;;;7.00;99.90;;;;;;4994568;28;20258;-61
2024/01/26 10:18:47;;;;;;;12.80;5.80;;;7.10;99.90;;;;;;4994771;28;21941;-61
2024/01/26 10:21:14;;;;;;;10.50;6.33;;;7.10;99.90;;;;;;4994270;28;20213;-61
2024/01/26 10:23:41;;;;;;;16.23;8.07;;;7.30;99.90;;;;;;4994161;28;20442;-61
2024/01/26 10:26:07;;;;;;;9.03;6.47;;;7.30;99.90;;;;;;4990949;28;20584;-61
2024/01/26 10:28:32;;;;;;;15.37;6.80;;;7.40;99.90;;;;;;4993230;28;20523;-61
2024/01/26 10:30:58;;;;;;;10.20;6.40;;;7.50;99.90;;;;;;4992968;28;20807;-61
2024/01/26 10:33:24;;;;;;;10.13;5.17;;;7.60;99.90;;;;;;4994001;28;20215;-61
2024/01/26 10:36:01;;;;;;;10.60;5.57;;;7.50;99.90;;;;;;4992991;28;20643;-60
2024/01/26 10:38:31;;;;;;;12.63;5.07;;;7.60;99.90;;;;;;4993624;28;20427;-62
2024/01/26 10:41:04;;;;;;;12.90;5.67;;;7.70;99.90;;;;;;4985557;28;20470;-60
2024/01/26 10:43:31;;;;;;;11.63;5.70;;;7.60;99.90;;;;;;4993426;28;20435;-61
2024/01/26 10:45:57;;;;;;;14.57;5.60;;;7.70;99.90;;;;;;4990395;28;20447;-61
2024/01/26 10:48:25;;;;;;;14.43;7.20;;;7.70;99.90;;;;;;4998878;28;20420;-60
2024/01/26 10:50:50;;;;;;;8.63;5.30;;;7.90;99.90;;;;;;4992682;28;20459;-60
2024/01/26 10:53:17;;;;;;;9.10;5.50;;;8.00;99.90;;;;;;4993308;28;20966;-61
2024/01/26 10:55:44;;;;;;;15.67;6.67;;;8.20;99.90;;;;;;4993753;28;20208;-61
2024/01/26 10:58:10;;;;;;;8.70;5.00;;;8.30;99.90;;;;;;4993292;28;20427;-61
2024/01/26 11:00:35;;;;;;;13.13;4.83;;;8.40;99.90;;;;;;4997344;28;20815;-62
2024/01/26 11:03:03;;;;;;;7.10;6.10;;;8.60;99.90;;;;;;4987736;28;20444;-62
2024/01/26 11:05:29;;;;;;;10.57;5.33;;;8.70;99.90;;;;;;4991128;28;20216;-61
2024/01/26 11:07:55;;;;;;;6.23;4.93;;;8.80;99.90;;;;;;4993043;28;20472;-59
2024/01/26 11:10:25;;;;;;;9.53;5.90;;;8.80;99.90;;;;;;4993316;28;20295;-61
2024/01/26 11:13:05;;;;;;;8.20;5.60;;;8.90;99.90;;;;;;5001819;28;20821;-60
2024/01/26 11:15:31;;;;;;;9.43;5.53;;;8.80;99.90;;;;;;4993562;28;21099;-61
2024/01/26 11:17:58;;;;;;;6.97;4.80;;;8.80;99.90;;;;;;4990887;28;20487;-60
2024/01/26 11:20:31;;;;;;;7.50;5.13;;;8.90;99.90;;;;;;5000702;28;20443;-61
2024/01/26 11:23:11;;;;;;;10.03;4.80;;;8.90;99.90;;;;;;5001478;28;20413;-60
2024/01/26 11:25:49;;;;;;;8.40;5.57;;;8.90;99.90;;;;;;4996497;28;20815;-61
2024/01/26 11:28:16;;;;;;;9.27;5.13;;;8.70;99.90;;;;;;4996614;28;20404;-61
2024/01/26 11:30:50;;;;;;;13.33;6.07;;;8.70;99.90;;;;;;4995528;28;20490;-61
2024/01/26 11:33:17;;;;;;;8.50;5.10;;;8.70;99.90;;;;;;5004704;28;20470;-61
2024/01/26 11:35:43;;;;;;;10.93;5.40;;;8.70;99.90;;;;;;4996986;28;20411;-61
2024/01/26 11:38:09;;;;;;;11.87;6.17;;;8.70;99.90;;;;;;5006048;28;20424;-61
2024/01/26 11:40:35;;;;;;;15.40;6.80;;;8.70;99.90;;;;;;4990640;28;20489;-61
2024/01/26 11:43:01;;;;;;;7.00;4.20;;;8.70;99.90;;;;;;4993136;28;20251;-61
2024/01/26 11:45:42;;;;;;;14.03;6.20;;;8.70;99.90;;;;;;5000610;28;20191;-61
2024/01/26 11:48:08;;;;;;;10.70;4.50;;;8.70;99.90;;;;;;4990160;28;20404;-60
2024/01/26 11:50:42;;;;;;;9.00;5.20;;;8.70;99.90;;;;;;4990670;28;20459;-61
2024/01/26 11:53:09;;;;;;;11.63;5.57;;;8.70;99.90;;;;;;4988362;28;20409;-61
2024/01/26 11:55:37;;;;;;;13.57;5.47;;;8.70;99.90;;;;;;4983498;28;20459;-63
2024/01/26 11:58:02;;;;;;;5.73;4.73;;;8.70;99.90;;;;;;4992430;28;20487;-60
2024/01/26 12:00:29;;;;;;;7.43;4.53;;;8.70;99.90;;;;;;4995243;28;20440;-63
2024/01/26 12:02:55;;;;;;;8.97;4.97;;;8.80;99.90;;;;;;4992592;28;20188;-62
2024/01/26 12:05:21;;;;;;;12.10;5.30;;;8.80;99.90;;;;;;4995028;28;20424;-62
2024/01/26 12:07:48;;;;;;;6.10;4.13;;;8.80;99.90;;;;;;4992422;28;20416;-60
2024/01/26 12:10:14;;;;;;;7.70;5.10;;;8.80;99.90;;;;;;4991695;28;20452;-60
2024/01/26 12:12:44;;;;;;;6.30;4.90;;;8.80;99.90;;;;;;4989699;28;20428;-60
2024/01/26 12:15:10;;;;;;;6.00;4.40;;;8.80;99.90;;;;;;4991936;28;20851;-61
2024/01/26 12:17:36;;;;;;;10.60;5.70;;;8.80;99.90;;;;;;4992266;28;20416;-63
2024/01/26 12:20:08;;;;;;;8.50;5.00;;;8.80;99.90;;;;;;4992240;28;20528;-61
2024/01/26 12:22:34;;;;;;;10.93;4.60;;;8.60;99.90;;;;;;4991722;28;20411;-61
2024/01/26 12:25:05;;;;;;;16.23;6.30;;;8.50;99.90;;;;;;4992237;28;20427;-60
2024/01/26 12:27:31;;;;;;;8.50;5.13;;;8.50;99.90;;;;;;4991986;28;20416;-60
2024/01/26 12:29:56;;;;;;;7.90;5.37;;;8.50;99.90;;;;;;4991729;28;20795;-59
2024/01/26 12:32:22;;;;;;;5.63;4.87;;;8.40;99.90;;;;;;4992662;28;20175;-60
2024/01/26 12:34:48;;;;;;;6.13;4.97;;;8.30;99.90;;;;;;4998571;28;20203;-59
2024/01/26 12:37:14;;;;;;;10.53;5.10;;;8.40;99.90;;;;;;4991614;28;20408;-60
2024/01/26 12:39:39;;;;;;;9.30;5.20;;;8.40;99.90;;;;;;4991956;28;20207;-60
2024/01/26 12:42:05;;;;;;;7.93;5.00;;;8.40;99.90;;;;;;4991396;28;20540;-60
2024/01/26 12:44:32;;;;;;;6.50;4.93;;;8.40;99.90;;;;;;4991377;28;20187;-60
2024/01/26 12:46:59;;;;;;;10.57;5.53;;;8.40;99.90;;;;;;4991024;28;20194;-58